Country
Station

 

Weather  for  Hyakuri Ab  -  Japan    Japan

  
10 °C (50 °F)
    
 
 

Current METAR for Hyakuri Ab is :

RJAH 240100Z VRB02KT 9999 FEW060 10/M05 Q1022

 

This is a report for Hyakuri Ab - Japan.
 
The report was made 52 minutes ago, at 01:00 UTC .
The wind was blowing at a speed of 1.0 meters per second (2.3 miles per hour) from variable directions.
 
The temperature was 10 °C (50 °F), with a dew-point at -5 °C (23 °F).
The atmospheric pressure was 1022 hPa (30.18 inHg).
The relative humidity was 34.3%.
 
There were a few clouds at a height of 1829 meters (6000 feet).
 
The overall visibility was greater than 10 kilometers (6.2 miles).
 

 
 
 
 

Country :   A   B   C   D   E   F   G   H   I   J   K   L   M   N   O   P   Q   R   S   T   U   V   W   Y   Z

 

Site Info  |  Disclaimer  |  Credits  |  Privacy
Contact us  |  Add to favorites
© 2013-2020 METARs - All rights reserved